Time;durP1;ratioP1;P1;durP2;ratioP2;P2;SDS_P1;SDS_P2;PMS_P1;PMS_P2;Temp;Humidity;BMP_temperature;BMP_pressure;BME280_temperature;BME280_humidity;BME280_pressure;Samples;Min_cycle;Max_cycle;Signal;HPM_P1;HPM_P2
2022/04/11 00:01:00;;;;;;;0.80;0.80;;;5.30;99.90;;;;;;5011614;28;20680;-69
2022/04/11 00:03:28;;;;;;;0.90;0.90;;;5.30;99.90;;;;;;5007741;28;20581;-70
2022/04/11 00:05:55;;;;;;;0.80;0.80;;;5.30;99.90;;;;;;5010127;28;20201;-69
2022/04/11 00:08:22;;;;;;;0.87;0.87;;;5.30;99.90;;;;;;5010683;28;20229;-71
2022/04/11 00:10:49;;;;;;;1.10;0.80;;;5.40;99.90;;;;;;5012484;28;20205;-72
2022/04/11 00:13:17;;;;;;;0.80;0.80;;;5.40;99.90;;;;;;5018856;28;20656;-69
2022/04/11 00:15:44;;;;;;;1.03;0.80;;;5.40;99.90;;;;;;5018555;28;20284;-69
2022/04/11 00:18:11;;;;;;;0.83;0.83;;;5.40;99.90;;;;;;5016262;28;20280;-70
2022/04/11 00:20:38;;;;;;;1.00;1.00;;;5.30;99.90;;;;;;5010005;28;20243;-69
2022/04/11 00:23:06;;;;;;;0.80;0.80;;;5.30;99.90;;;;;;5007736;28;20248;-69
2022/04/11 00:25:34;;;;;;;0.80;0.80;;;5.30;99.90;;;;;;5007449;28;20215;-69
2022/04/11 00:28:01;;;;;;;0.80;0.80;;;5.30;99.90;;;;;;5007635;28;20225;-69
2022/04/11 00:30:29;;;;;;;1.00;0.90;;;5.30;99.90;;;;;;5010366;28;20297;-68
2022/04/11 00:32:56;;;;;;;0.60;0.60;;;5.30;99.90;;;;;;5006156;28;20208;-69
2022/04/11 00:35:23;;;;;;;0.80;0.80;;;5.30;99.90;;;;;;5005633;28;20297;-70
2022/04/11 00:37:50;;;;;;;0.63;0.63;;;5.30;99.90;;;;;;5007941;28;20284;-68
2022/04/11 00:40:17;;;;;;;0.87;0.87;;;5.30;99.90;;;;;;5007108;28;20253;-69
2022/04/11 00:42:44;;;;;;;0.80;0.80;;;5.20;99.90;;;;;;5006344;28;20336;-69
2022/04/11 00:45:11;;;;;;;0.83;0.83;;;5.20;99.90;;;;;;5008529;28;20313;-70
2022/04/11 00:47:39;;;;;;;0.70;0.70;;;5.30;99.90;;;;;;5007259;28;20256;-69
2022/04/11 00:50:08;;;;;;;0.90;0.90;;;5.20;99.90;;;;;;5022821;28;20212;-69
2022/04/11 00:52:38;;;;;;;0.80;0.80;;;5.30;99.90;;;;;;5036190;28;20228;-69
2022/04/11 00:55:08;;;;;;;0.70;0.70;;;5.30;99.90;;;;;;5029985;28;20547;-69
2022/04/11 00:57:35;;;;;;;0.83;0.80;;;5.30;99.90;;;;;;5027503;28;20192;-69
2022/04/11 01:00:04;;;;;;;0.60;0.60;;;5.30;99.90;;;;;;5029675;28;20312;-69
2022/04/11 01:02:31;;;;;;;0.70;0.70;;;5.30;99.90;;;;;;5020784;28;20233;-69
2022/04/11 01:04:59;;;;;;;0.80;0.80;;;5.30;99.90;;;;;;5023931;28;20232;-69
2022/04/11 01:07:26;;;;;;;0.70;0.70;;;5.40;99.90;;;;;;5012255;28;20224;-69
2022/04/11 01:09:53;;;;;;;0.80;0.80;;;5.40;99.90;;;;;;5010929;28;20312;-69
2022/04/11 01:12:21;;;;;;;0.80;0.80;;;5.40;99.90;;;;;;5014091;28;20214;-69
2022/04/11 01:14:48;;;;;;;0.70;0.70;;;5.40;99.90;;;;;;5008510;28;20202;-68
2022/04/11 01:17:15;;;;;;;0.70;0.70;;;5.40;99.90;;;;;;5010219;28;20284;-69
2022/04/11 01:19:42;;;;;;;0.70;0.70;;;5.40;99.90;;;;;;5014862;28;20275;-69
2022/04/11 01:22:10;;;;;;;0.73;0.73;;;5.40;99.90;;;;;;5008292;28;20663;-68
2022/04/11 01:24:38;;;;;;;0.80;0.80;;;5.40;99.90;;;;;;5006132;28;20690;-69
2022/04/11 01:27:05;;;;;;;0.70;0.70;;;5.40;99.90;;;;;;4999035;28;20301;-68
2022/04/11 01:29:33;;;;;;;0.70;0.70;;;5.50;99.90;;;;;;5010458;28;20256;-68
2022/04/11 01:32:02;;;;;;;0.80;0.80;;;5.50;99.90;;;;;;5010247;28;20289;-70
2022/04/11 01:34:29;;;;;;;0.70;0.70;;;5.50;99.90;;;;;;5009582;28;20284;-69
2022/04/11 01:36:57;;;;;;;0.60;0.60;;;5.50;99.90;;;;;;5008873;28;20312;-69
2022/04/11 01:39:25;;;;;;;0.77;0.77;;;5.50;99.90;;;;;;5015077;28;20233;-70
2022/04/11 01:41:52;;;;;;;0.80;0.80;;;5.50;99.90;;;;;;5015207;28;20288;-70
2022/04/11 01:44:19;;;;;;;0.60;0.60;;;5.60;99.90;;;;;;5006212;28;20283;-69
2022/04/11 01:46:50;;;;;;;0.70;0.70;;;5.60;99.90;;;;;;5003837;28;20202;-71
2022/04/11 01:49:17;;;;;;;0.90;0.90;;;5.60;99.90;;;;;;5023231;28;20227;-70
2022/04/11 01:51:44;;;;;;;0.93;0.80;;;5.70;99.90;;;;;;5020411;28;20208;-70
2022/04/11 01:54:11;;;;;;;0.77;0.77;;;5.70;99.90;;;;;;5015309;28;20216;-70
2022/04/11 01:56:39;;;;;;;0.60;0.60;;;5.70;99.90;;;;;;5004168;28;20292;-69
2022/04/11 01:59:06;;;;;;;0.80;0.80;;;5.70;99.90;;;;;;4997286;28;20289;-70
2022/04/11 02:01:33;;;;;;;0.60;0.60;;;5.80;99.90;;;;;;5001380;28;20585;-70
2022/04/11 02:04:00;;;;;;;0.70;0.70;;;5.80;99.90;;;;;;4997926;28;20225;-72
2022/04/11 02:06:27;;;;;;;0.77;0.77;;;5.80;99.90;;;;;;4992275;28;20229;-69
2022/04/11 02:08:53;;;;;;;0.53;0.53;;;5.80;99.90;;;;;;4994774;28;20228;-70
2022/04/11 02:11:20;;;;;;;0.70;0.70;;;5.80;99.90;;;;;;4999118;28;20296;-68
2022/04/11 02:13:49;;;;;;;0.70;0.70;;;5.80;99.90;;;;;;4994862;28;20245;-70
2022/04/11 02:16:15;;;;;;;0.90;0.90;;;5.80;99.90;;;;;;4992629;28;20297;-71
2022/04/11 02:18:42;;;;;;;0.60;0.60;;;5.90;99.90;;;;;;4990526;28;20230;-70
2022/04/11 02:21:09;;;;;;;0.80;0.80;;;5.90;99.90;;;;;;4991766;28;20210;-68
2022/04/11 02:23:36;;;;;;;0.60;0.60;;;5.90;99.90;;;;;;5003876;28;20201;-70
2022/04/11 02:26:03;;;;;;;0.70;0.70;;;5.90;99.90;;;;;;4999740;28;20295;-70
2022/04/11 02:28:30;;;;;;;0.70;0.70;;;5.90;99.90;;;;;;5010896;28;20688;-70
2022/04/11 02:30:58;;;;;;;0.70;0.70;;;5.90;99.90;;;;;;5011887;28;20671;-68
2022/04/11 02:33:25;;;;;;;0.80;0.80;;;5.90;99.90;;;;;;5011641;28;20698;-67
2022/04/11 02:35:52;;;;;;;0.80;0.80;;;5.90;99.90;;;;;;5010363;28;20209;-68
2022/04/11 02:38:19;;;;;;;0.60;0.60;;;6.00;99.90;;;;;;5010558;28;20806;-70
2022/04/11 02:40:47;;;;;;;0.80;0.80;;;6.00;99.90;;;;;;5011515;28;20696;-68
2022/04/11 02:43:14;;;;;;;0.63;0.63;;;5.90;99.90;;;;;;5011379;28;20713;-68
2022/04/11 02:45:41;;;;;;;0.70;0.70;;;5.90;99.90;;;;;;5010120;28;20190;-68
2022/04/11 02:48:09;;;;;;;0.80;0.80;;;6.00;99.90;;;;;;5002500;28;20222;-68
2022/04/11 02:50:36;;;;;;;0.60;0.60;;;6.10;99.90;;;;;;4998678;28;20205;-68
2022/04/11 02:53:03;;;;;;;0.67;0.67;;;6.00;99.90;;;;;;5009244;28;20345;-70
2022/04/11 02:55:29;;;;;;;0.70;0.70;;;6.10;99.90;;;;;;5012742;28;20238;-69
2022/04/11 02:57:56;;;;;;;0.80;0.80;;;6.00;99.90;;;;;;5015916;28;20190;-69
2022/04/11 03:00:23;;;;;;;0.70;0.70;;;6.00;99.90;;;;;;4998224;28;20304;-68
2022/04/11 03:02:50;;;;;;;0.70;0.70;;;6.00;99.90;;;;;;4999043;28;20206;-74
2022/04/11 03:05:18;;;;;;;0.60;0.60;;;6.10;99.90;;;;;;4997262;28;20213;-71
2022/04/11 03:07:45;;;;;;;0.90;0.90;;;6.10;99.90;;;;;;4994758;28;20406;-68
2022/04/11 03:10:13;;;;;;;0.77;0.77;;;6.00;99.90;;;;;;4995106;28;20293;-69
2022/04/11 03:12:40;;;;;;;0.77;0.77;;;6.00;99.90;;;;;;4995401;28;20202;-70
2022/04/11 03:15:08;;;;;;;0.80;0.80;;;6.10;99.90;;;;;;4994493;28;20212;-70
2022/04/11 03:17:35;;;;;;;1.00;1.00;;;6.10;99.90;;;;;;4996685;28;20288;-70
2022/04/11 03:20:02;;;;;;;0.90;0.90;;;6.00;99.90;;;;;;5002491;28;20283;-68
2022/04/11 03:22:31;;;;;;;0.80;0.80;;;6.00;99.90;;;;;;5007574;28;20232;-68
2022/04/11 03:24:58;;;;;;;0.80;0.80;;;6.00;99.90;;;;;;5007324;28;20723;-70
2022/04/11 03:27:25;;;;;;;0.80;0.80;;;5.90;99.90;;;;;;4999568;28;20268;-71
2022/04/11 03:29:52;;;;;;;0.80;0.80;;;5.90;99.90;;;;;;4992579;28;20222;-73
2022/04/11 03:32:19;;;;;;;0.60;0.60;;;5.80;99.90;;;;;;4993804;28;20249;-71
2022/04/11 03:34:46;;;;;;;0.80;0.80;;;5.90;99.90;;;;;;4993407;28;20209;-70
2022/04/11 03:37:13;;;;;;;0.87;0.87;;;5.80;99.90;;;;;;4991862;28;20237;-69
2022/04/11 03:39:41;;;;;;;0.83;0.83;;;5.80;99.90;;;;;;4992692;28;20365;-69
2022/04/11 03:42:09;;;;;;;0.80;0.80;;;5.80;99.90;;;;;;4994328;28;20241;-68
2022/04/11 03:44:36;;;;;;;0.60;0.60;;;5.80;99.90;;;;;;4994814;28;20292;-70
2022/04/11 03:47:03;;;;;;;0.60;0.60;;;5.70;99.90;;;;;;4993477;28;20220;-72
2022/04/11 03:49:30;;;;;;;0.80;0.80;;;5.70;99.90;;;;;;4995265;28;20276;-68
2022/04/11 03:51:58;;;;;;;0.83;0.80;;;5.70;99.90;;;;;;4994944;28;20202;-70
2022/04/11 03:54:24;;;;;;;0.70;0.70;;;5.70;99.90;;;;;;5014934;28;20209;-68
2022/04/11 03:56:53;;;;;;;0.80;0.80;;;5.70;99.90;;;;;;4998749;28;20297;-70
2022/04/11 03:59:19;;;;;;;0.70;0.70;;;5.60;99.90;;;;;;4997403;28;20261;-70
2022/04/11 04:01:46;;;;;;;0.70;0.70;;;5.60;99.90;;;;;;4996629;28;20300;-70
2022/04/11 04:04:13;;;;;;;0.80;0.80;;;5.60;99.90;;;;;;4995654;28;20732;-71
2022/04/11 04:06:40;;;;;;;0.70;0.70;;;5.70;99.90;;;;;;4995604;28;20768;-70
2022/04/11 04:09:07;;;;;;;0.90;0.90;;;5.70;99.90;;;;;;4995379;28;20236;-69
2022/04/11 04:11:34;;;;;;;0.80;0.80;;;5.70;99.90;;;;;;4996981;28;20206;-70
2022/04/11 04:14:02;;;;;;;0.87;0.87;;;5.70;99.90;;;;;;4995030;28;20206;-71
2022/04/11 04:16:29;;;;;;;0.90;0.90;;;5.90;99.90;;;;;;4993947;28;20305;-69
2022/04/11 04:18:56;;;;;;;0.60;0.60;;;6.00;99.90;;;;;;4991878;28;20736;-69
2022/04/11 04:21:23;;;;;;;0.70;0.70;;;5.90;99.90;;;;;;4994583;28;20269;-68
2022/04/11 04:23:50;;;;;;;0.80;0.80;;;5.90;99.90;;;;;;4994888;28;20206;-69
2022/04/11 04:26:17;;;;;;;1.03;0.90;;;5.80;99.90;;;;;;4997491;28;20205;-69
2022/04/11 04:28:44;;;;;;;0.70;0.70;;;5.70;99.90;;;;;;5003715;28;20287;-72
2022/04/11 04:31:12;;;;;;;0.90;0.90;;;5.70;99.90;;;;;;5009021;28;20210;-68
2022/04/11 04:33:39;;;;;;;0.80;0.80;;;5.70;99.90;;;;;;5014841;28;20644;-69
2022/04/11 04:36:06;;;;;;;0.60;0.60;;;5.60;99.90;;;;;;5012979;28;20734;-71
2022/04/11 04:38:33;;;;;;;1.00;1.00;;;5.60;99.90;;;;;;5013994;28;20279;-71
2022/04/11 04:41:00;;;;;;;0.90;0.90;;;5.60;99.90;;;;;;5013771;28;20312;-70
2022/04/11 04:43:26;;;;;;;0.97;0.97;;;5.60;99.90;;;;;;5014138;28;20292;-68
2022/04/11 04:45:53;;;;;;;0.80;0.80;;;5.60;99.90;;;;;;5010741;28;20252;-68
2022/04/11 04:48:22;;;;;;;0.80;0.80;;;5.70;99.90;;;;;;5012870;28;20723;-69
2022/04/11 04:50:49;;;;;;;0.80;0.80;;;5.70;99.90;;;;;;5023648;28;20277;-66
2022/04/11 04:53:16;;;;;;;0.80;0.80;;;5.70;99.90;;;;;;5022072;28;20209;-68
2022/04/11 04:55:42;;;;;;;0.80;0.80;;;5.80;99.90;;;;;;5006979;28;20284;-69
2022/04/11 04:58:09;;;;;;;0.87;0.87;;;5.80;99.90;;;;;;5008052;28;20221;-70
2022/04/11 05:00:36;;;;;;;0.97;0.97;;;5.80;99.90;;;;;;5011341;28;20249;-67
2022/04/11 05:03:03;;;;;;;0.90;0.90;;;5.80;99.90;;;;;;5003171;28;20210;-68
2022/04/11 05:05:31;;;;;;;0.90;0.90;;;5.80;99.90;;;;;;5002438;28;20209;-67
2022/04/11 05:07:58;;;;;;;0.90;0.90;;;5.80;99.90;;;;;;5011653;28;20205;-67
2022/04/11 05:10:25;;;;;;;1.00;1.00;;;5.80;99.90;;;;;;4991498;28;20206;-68
2022/04/11 05:12:52;;;;;;;1.00;1.00;;;5.80;99.90;;;;;;4993650;28;20559;-67
2022/04/11 05:15:19;;;;;;;0.90;0.90;;;5.70;99.90;;;;;;4992727;28;20672;-68
2022/04/11 05:17:46;;;;;;;0.90;0.90;;;5.70;99.90;;;;;;4992027;28;20217;-67
2022/04/11 05:20:13;;;;;;;1.02;0.90;;;5.70;99.90;;;;;;4999823;28;20312;-67
2022/04/11 05:22:42;;;;;;;0.97;0.97;;;5.70;99.90;;;;;;4994942;28;20237;-67
2022/04/11 05:25:10;;;;;;;0.90;0.90;;;5.70;99.90;;;;;;4993187;28;20261;-68
2022/04/11 05:27:36;;;;;;;0.90;0.90;;;5.70;99.90;;;;;;4999573;28;20244;-67
2022/04/11 05:30:05;;;;;;;0.93;0.93;;;5.70;99.90;;;;;;4991797;28;20254;-70
2022/04/11 05:32:33;;;;;;;1.10;1.10;;;5.70;99.90;;;;;;4997847;28;20260;-68
2022/04/11 05:35:00;;;;;;;1.00;1.00;;;5.80;99.90;;;;;;4992685;28;20213;-68
2022/04/11 05:37:27;;;;;;;1.20;1.13;;;5.80;99.90;;;;;;4995475;28;20210;-67
2022/04/11 05:39:55;;;;;;;1.20;1.20;;;5.80;99.90;;;;;;5009884;28;20704;-71
2022/04/11 05:42:22;;;;;;;0.93;0.83;;;5.90;99.90;;;;;;5007912;28;20242;-67
2022/04/11 05:44:49;;;;;;;1.00;1.00;;;6.00;99.90;;;;;;5010612;28;20215;-65
2022/04/11 05:47:15;;;;;;;0.80;0.80;;;6.00;99.90;;;;;;5003231;28;20312;-67
2022/04/11 05:49:42;;;;;;;0.90;0.90;;;6.10;99.90;;;;;;5003703;28;20229;-68
2022/04/11 05:52:09;;;;;;;1.00;1.00;;;6.20;99.90;;;;;;5006588;28;20205;-68
2022/04/11 05:54:39;;;;;;;1.07;1.07;;;6.30;99.90;;;;;;5016718;28;20626;-69
2022/04/11 05:57:07;;;;;;;1.47;1.37;;;6.40;99.90;;;;;;4991237;28;20306;-70
2022/04/11 05:59:34;;;;;;;1.10;1.10;;;6.40;99.90;;;;;;4992741;28;20230;-68
2022/04/11 06:02:01;;;;;;;0.93;0.93;;;6.50;99.90;;;;;;4993371;28;20317;-69
2022/04/11 06:04:28;;;;;;;2.90;1.30;;;6.60;99.90;;;;;;5001870;28;20292;-67
2022/04/11 06:06:55;;;;;;;1.40;1.30;;;6.70;99.90;;;;;;5002429;28;20202;-69
2022/04/11 06:09:22;;;;;;;1.30;1.20;;;6.90;99.90;;;;;;5007255;28;20221;-68
2022/04/11 06:11:49;;;;;;;1.30;1.20;;;6.90;99.90;;;;;;5011880;28;20295;-67
2022/04/11 06:14:20;;;;;;;0.90;0.90;;;6.90;99.90;;;;;;5014125;28;20213;-70
2022/04/11 06:16:47;;;;;;;1.07;1.07;;;7.10;99.90;;;;;;5007750;28;20237;-68
2022/04/11 06:19:14;;;;;;;0.90;0.90;;;7.20;99.90;;;;;;4991763;28;20287;-68
2022/04/11 06:21:41;;;;;;;0.90;0.90;;;7.20;99.90;;;;;;5020094;22;20232;-64
2022/04/11 06:24:08;;;;;;;0.80;0.80;;;7.30;99.90;;;;;;5016075;28;20228;-67
2022/04/11 06:26:35;;;;;;;1.13;1.03;;;7.40;99.90;;;;;;5020602;28;20205;-64
2022/04/11 06:29:02;;;;;;;1.17;1.17;;;7.50;99.90;;;;;;5030757;28;20262;-64
2022/04/11 06:31:31;;;;;;;1.07;1.07;;;7.70;99.90;;;;;;5037098;28;20296;-64
2022/04/11 06:33:58;;;;;;;0.80;0.80;;;7.80;99.90;;;;;;5018590;28;20292;-65
2022/04/11 06:36:24;;;;;;;1.00;1.00;;;8.00;99.90;;;;;;5017668;28;20312;-64
2022/04/11 06:38:51;;;;;;;1.30;1.20;;;8.30;99.90;;;;;;5015958;28;20304;-64
2022/04/11 06:41:18;;;;;;;0.70;0.70;;;8.20;99.90;;;;;;5015848;28;20279;-65
2022/04/11 06:43:45;;;;;;;0.90;0.90;;;8.40;99.90;;;;;;5015532;28;20259;-66
2022/04/11 06:46:12;;;;;;;1.43;1.10;;;8.50;99.90;;;;;;5015773;28;20271;-65
2022/04/11 06:48:41;;;;;;;0.90;0.90;;;8.60;99.90;;;;;;5015220;28;20273;-66
2022/04/11 06:51:07;;;;;;;0.90;0.90;;;8.70;99.90;;;;;;5024879;28;20206;-65
2022/04/11 06:53:34;;;;;;;0.90;0.90;;;8.80;99.90;;;;;;5024123;28;20289;-65
2022/04/11 06:56:01;;;;;;;1.00;1.00;;;8.90;99.90;;;;;;5018679;28;20263;-65
2022/04/11 06:58:28;;;;;;;1.07;1.07;;;9.10;99.90;;;;;;5015893;28;20237;-65
2022/04/11 07:00:55;;;;;;;1.20;1.20;;;9.20;99.90;;;;;;5016693;28;20225;-65
2022/04/11 07:03:22;;;;;;;1.20;1.20;;;9.20;99.90;;;;;;5015910;28;20248;-65
2022/04/11 07:05:51;;;;;;;1.80;1.50;;;9.30;99.90;;;;;;5015054;28;20284;-64
2022/04/11 07:08:17;;;;;;;1.80;1.70;;;9.30;99.90;;;;;;5014192;28;20727;-65
2022/04/11 07:10:45;;;;;;;1.93;1.83;;;9.30;99.90;;;;;;5015503;28;20205;-65
2022/04/11 07:13:12;;;;;;;1.80;1.70;;;9.30;99.90;;;;;;5010637;28;20226;-65
2022/04/11 07:15:39;;;;;;;1.60;1.50;;;9.30;99.90;;;;;;5010427;28;20256;-64
2022/04/11 07:18:06;;;;;;;1.40;1.40;;;9.30;99.90;;;;;;5010600;28;20205;-65
2022/04/11 07:20:33;;;;;;;1.70;1.60;;;9.30;99.90;;;;;;5008764;28;20256;-66
2022/04/11 07:23:01;;;;;;;1.53;1.43;;;9.30;99.90;;;;;;5020958;28;20237;-63
2022/04/11 07:25:28;;;;;;;1.37;1.37;;;9.30;99.90;;;;;;5027078;28;20222;-66
2022/04/11 07:27:56;;;;;;;1.70;1.60;;;9.30;99.90;;;;;;5011726;28;20206;-65
2022/04/11 07:30:23;;;;;;;1.70;1.60;;;9.30;99.90;;;;;;5011967;28;20212;-64
2022/04/11 07:32:50;;;;;;;1.30;1.30;;;9.30;99.90;;;;;;5012365;28;20226;-63
2022/04/11 07:35:17;;;;;;;1.40;1.30;;;9.30;99.90;;;;;;5007202;28;20669;-64
2022/04/11 07:37:44;;;;;;;1.40;1.30;;;9.40;99.90;;;;;;4996302;28;20241;-66
2022/04/11 07:40:13;;;;;;;1.63;1.53;;;9.50;99.90;;;;;;4999133;28;20266;-64
2022/04/11 07:42:40;;;;;;;1.40;1.30;;;9.60;99.90;;;;;;5003160;28;20261;-66
2022/04/11 07:45:08;;;;;;;1.40;1.30;;;9.70;99.90;;;;;;5006322;28;20297;-65
2022/04/11 07:47:35;;;;;;;1.30;1.30;;;9.80;99.90;;;;;;5008643;28;20238;-64
2022/04/11 07:50:02;;;;;;;1.30;1.30;;;10.00;99.90;;;;;;5009166;28;20208;-64
2022/04/11 07:52:29;;;;;;;1.50;1.37;;;10.10;99.90;;;;;;5013993;28;20927;-64
2022/04/11 07:54:56;;;;;;;1.10;1.10;;;10.30;99.90;;;;;;5018085;28;20600;-64
2022/04/11 07:57:24;;;;;;;1.33;1.33;;;10.40;99.90;;;;;;5015988;28;20288;-64
2022/04/11 07:59:51;;;;;;;1.10;1.10;;;10.60;99.90;;;;;;5001479;28;20682;-65
2022/04/11 08:02:25;;;;;;;1.10;1.10;;;10.80;99.90;;;;;;4995641;28;20241;-66
2022/04/11 08:04:52;;;;;;;1.03;1.03;;;11.10;99.90;;;;;;4995547;28;20722;-66
2022/04/11 08:07:19;;;;;;;1.07;1.07;;;11.40;99.90;;;;;;4994371;28;20260;-64
2022/04/11 08:09:46;;;;;;;1.10;1.10;;;11.50;99.90;;;;;;4995142;28;20243;-65
2022/04/11 08:12:13;;;;;;;1.07;1.07;;;11.70;99.90;;;;;;5008509;28;20588;-66
2022/04/11 08:14:41;;;;;;;1.20;1.20;;;11.80;99.90;;;;;;5012153;28;20207;-63
2022/04/11 08:17:08;;;;;;;1.20;1.17;;;11.90;99.90;;;;;;5005183;28;20206;-65
2022/04/11 08:19:35;;;;;;;1.03;0.93;;;12.10;99.90;;;;;;4992975;28;20296;-67
2022/04/11 08:22:02;;;;;;;0.60;0.60;;;12.20;99.90;;;;;;5006995;28;20221;-66
2022/04/11 08:24:29;;;;;;;0.40;0.40;;;12.40;99.90;;;;;;4994181;28;20730;-65
2022/04/11 08:26:58;;;;;;;0.60;0.60;;;12.60;99.90;;;;;;4993599;28;20634;-65
2022/04/11 08:29:25;;;;;;;1.27;1.17;;;12.80;99.90;;;;;;4994045;28;20288;-65
2022/04/11 08:31:53;;;;;;;1.20;1.20;;;12.90;99.90;;;;;;4994276;28;20718;-66
2022/04/11 08:34:20;;;;;;;1.20;1.20;;;12.90;99.90;;;;;;4994055;28;20202;-65
2022/04/11 08:36:48;;;;;;;1.10;1.10;;;12.90;99.90;;;;;;4994607;28;20659;-68
2022/04/11 08:39:15;;;;;;;1.70;1.00;;;12.90;99.90;;;;;;5013700;28;20259;-65
2022/04/11 08:41:43;;;;;;;2.00;1.33;;;12.80;99.90;;;;;;5013925;28;20324;-65
2022/04/11 08:44:10;;;;;;;1.30;1.20;;;12.80;99.90;;;;;;5013692;28;20818;-67
2022/04/11 08:46:37;;;;;;;1.33;1.10;;;12.70;99.90;;;;;;5015899;28;20213;-67
2022/04/11 08:49:07;;;;;;;1.10;1.10;;;12.70;99.90;;;;;;5024851;28;20225;-64
2022/04/11 08:51:35;;;;;;;1.20;1.20;;;12.80;99.90;;;;;;5001216;28;20649;-66
2022/04/11 08:54:05;;;;;;;1.33;1.10;;;12.90;99.90;;;;;;5000659;28;20281;-65
2022/04/11 08:56:32;;;;;;;1.10;1.10;;;12.90;99.90;;;;;;4992944;28;20206;-65
2022/04/11 08:58:59;;;;;;;1.00;1.00;;;13.00;99.90;;;;;;4992653;28;20228;-64
2022/04/11 09:01:27;;;;;;;1.10;1.10;;;13.20;99.90;;;;;;5007130;28;20732;-65
2022/04/11 09:03:53;;;;;;;1.30;1.30;;;13.20;99.90;;;;;;5009397;28;20217;-66
2022/04/11 09:06:23;;;;;;;1.30;1.20;;;13.10;99.90;;;;;;5003865;28;20309;-66
2022/04/11 09:08:52;;;;;;;1.00;1.00;;;13.20;99.90;;;;;;5011300;28;20280;-66
2022/04/11 09:11:33;;;;;;;1.20;1.10;;;13.00;99.90;;;;;;5011670;28;20288;-66
2022/04/11 09:14:01;;;;;;;1.00;1.00;;;13.20;99.90;;;;;;5008578;28;20224;-65
2022/04/11 09:16:29;;;;;;;0.90;0.90;;;13.30;99.90;;;;;;5011857;28;20271;-65
2022/04/11 09:18:57;;;;;;;1.13;1.03;;;13.50;99.90;;;;;;5005372;28;20599;-65
2022/04/11 09:21:25;;;;;;;0.97;0.97;;;13.60;99.90;;;;;;5011216;28;20268;-64
2022/04/11 09:24:17;;;;;;;1.00;1.00;;;13.60;99.90;;;;;;5011999;28;20256;-65
2022/04/11 09:26:44;;;;;;;1.10;1.10;;;13.70;99.90;;;;;;5009746;28;20672;-67
2022/04/11 09:29:12;;;;;;;0.90;0.90;;;13.70;99.90;;;;;;5004059;28;20213;-65
2022/04/11 09:31:39;;;;;;;0.90;0.90;;;13.90;99.90;;;;;;5015324;28;20664;-66
2022/04/11 09:34:17;;;;;;;0.90;0.90;;;14.10;99.90;;;;;;5007302;28;20268;-63
2022/04/11 09:36:47;;;;;;;0.90;0.90;;;14.30;99.90;;;;;;5009724;28;20207;-67
2022/04/11 09:39:14;;;;;;;1.00;1.00;;;14.20;99.90;;;;;;4996631;28;20233;-66
2022/04/11 09:41:46;;;;;;;1.13;1.00;;;14.30;99.90;;;;;;5005874;28;20312;-65
2022/04/11 09:44:26;;;;;;;0.90;0.90;;;14.00;99.90;;;;;;5015770;28;20201;-66
2022/04/11 09:46:54;;;;;;;0.70;0.70;;;14.10;99.90;;;;;;5018569;28;20667;-67
2022/04/11 09:49:22;;;;;;;0.90;0.90;;;14.20;99.90;;;;;;5013555;28;20699;-67
2022/04/11 09:52:08;;;;;;;1.00;0.90;;;14.20;99.90;;;;;;5010466;28;20237;-65
2022/04/11 09:54:37;;;;;;;0.93;0.93;;;14.20;99.90;;;;;;5002766;28;20206;-66
2022/04/11 09:57:05;;;;;;;1.20;1.10;;;14.30;99.90;;;;;;5008549;28;20225;-65
2022/04/11 09:59:33;;;;;;;0.80;0.80;;;14.30;99.90;;;;;;5011179;28;20236;-65
2022/04/11 10:02:00;;;;;;;0.90;0.90;;;14.60;99.90;;;;;;5014297;28;20233;-66
2022/04/11 10:04:28;;;;;;;1.00;1.00;;;14.90;99.90;;;;;;5019284;28;20226;-64
2022/04/11 10:06:55;;;;;;;1.23;1.23;;;15.00;99.90;;;;;;5011571;28;20251;-67
2022/04/11 10:09:24;;;;;;;2.47;2.37;;;14.90;99.90;;;;;;5013568;28;20288;-67
2022/04/11 10:11:53;;;;;;;1.27;1.27;;;14.90;99.90;;;;;;5009910;28;20285;-66
2022/04/11 10:14:26;;;;;;;1.00;1.00;;;15.00;99.90;;;;;;5009969;28;20212;-69
2022/04/11 10:16:54;;;;;;;1.10;1.10;;;15.00;99.90;;;;;;5010875;28;20586;-65
2022/04/11 10:19:28;;;;;;;1.10;1.10;;;14.70;99.90;;;;;;5009905;28;20208;-66
2022/04/11 10:21:58;;;;;;;1.07;1.07;;;15.00;99.90;;;;;;5011389;28;20312;-65
2022/04/11 10:24:34;;;;;;;0.90;0.90;;;15.10;99.90;;;;;;5012776;28;20296;-65
2022/04/11 10:27:17;;;;;;;1.43;1.00;;;15.20;99.90;;;;;;5013786;28;20239;-66
2022/04/11 10:29:44;;;;;;;1.00;1.00;;;15.30;99.90;;;;;;5008978;28;20229;-65
2022/04/11 10:32:13;;;;;;;1.00;1.00;;;15.40;99.90;;;;;;5013366;28;20248;-67
2022/04/11 10:34:48;;;;;;;0.83;0.83;;;15.20;99.90;;;;;;5005939;28;20212;-66
2022/04/11 10:37:16;;;;;;;0.90;0.90;;;15.30;99.90;;;;;;5003847;28;20197;-65
2022/04/11 10:39:45;;;;;;;0.70;0.70;;;15.50;99.90;;;;;;5006945;28;20763;-66
2022/04/11 10:42:13;;;;;;;1.00;1.00;;;15.80;99.90;;;;;;5016794;28;20233;-68
2022/04/11 10:44:41;;;;;;;1.10;0.90;;;15.80;99.90;;;;;;5023918;28;20351;-66
2022/04/11 10:47:35;;;;;;;0.70;0.70;;;15.90;99.90;;;;;;5017494;28;20211;-63
2022/04/11 10:50:28;;;;;;;0.90;0.90;;;16.10;99.90;;;;;;5015392;28;20201;-66
2022/04/11 10:53:27;;;;;;;0.70;0.70;;;16.00;99.90;;;;;;5014081;28;20256;-67
2022/04/11 10:56:02;;;;;;;1.00;1.00;;;16.10;99.90;;;;;;5011977;28;20205;-65
2022/04/11 10:58:46;;;;;;;0.90;0.90;;;16.10;99.90;;;;;;5010976;28;20201;-66
2022/04/11 11:01:13;;;;;;;0.87;0.87;;;15.90;99.90;;;;;;5003707;28;20288;-65
2022/04/11 11:03:40;;;;;;;0.80;0.80;;;15.90;99.90;;;;;;5012351;28;20750;-68
2022/04/11 11:06:18;;;;;;;1.03;0.90;;;16.10;99.90;;;;;;5010813;28;20207;-66
2022/04/11 11:08:46;;;;;;;1.00;1.00;;;16.30;99.90;;;;;;5004436;28;20237;-68
2022/04/11 11:11:22;;;;;;;0.97;0.97;;;16.30;99.90;;;;;;5003796;28;20240;-65
2022/04/11 11:13:50;;;;;;;0.80;0.80;;;16.30;99.90;;;;;;5008175;28;20275;-67
2022/04/11 11:16:42;;;;;;;0.90;0.90;;;16.60;99.90;;;;;;5009526;28;20220;-64
2022/04/11 11:19:14;;;;;;;1.00;1.00;;;16.70;99.90;;;;;;5011677;28;20229;-67
2022/04/11 11:22:01;;;;;;;0.73;0.73;;;16.80;99.90;;;;;;5012304;28;20224;-66
2022/04/11 11:24:29;;;;;;;1.07;1.07;;;17.00;99.90;;;;;;5009690;28;20285;-67
2022/04/11 11:26:59;;;;;;;0.90;0.90;;;17.10;99.90;;;;;;5012760;28;20221;-66
2022/04/11 11:29:29;;;;;;;1.20;1.10;;;17.40;99.90;;;;;;5009294;28;20228;-67
2022/04/11 11:31:57;;;;;;;0.80;0.80;;;17.50;99.90;;;;;;5013004;28;20234;-67
2022/04/11 11:34:26;;;;;;;1.20;1.20;;;17.70;99.90;;;;;;5011043;28;20205;-66
2022/04/11 11:36:58;;;;;;;1.13;1.10;;;17.50;99.90;;;;;;5013220;28;20202;-65
2022/04/11 11:39:26;;;;;;;0.90;0.90;;;17.30;99.90;;;;;;5013613;28;20662;-67
2022/04/11 11:41:56;;;;;;;0.90;0.90;;;17.20;99.90;;;;;;5013161;28;20243;-68
2022/04/11 11:44:24;;;;;;;0.80;0.80;;;17.00;99.90;;;;;;5013947;28;20209;-67
2022/04/11 11:46:55;;;;;;;0.70;0.70;;;17.20;99.90;;;;;;5012706;28;20211;-68
2022/04/11 11:49:23;;;;;;;0.60;0.60;;;17.60;99.90;;;;;;5007757;28;20647;-64
2022/04/11 11:51:50;;;;;;;0.70;0.70;;;17.40;99.90;;;;;;5008955;28;20634;-68
2022/04/11 11:54:33;;;;;;;0.90;0.90;;;17.50;99.90;;;;;;5012139;28;20229;-66
2022/04/11 11:57:00;;;;;;;1.00;0.90;;;17.70;99.90;;;;;;5011996;28;20197;-66
2022/04/11 11:59:29;;;;;;;1.27;1.20;;;17.90;99.90;;;;;;5013958;28;20209;-68
2022/04/11 12:04:37;;;;;;;0.80;0.80;;;17.70;99.90;;;;;;5014884;28;20205;-66
2022/04/11 12:07:05;;;;;;;0.83;0.83;;;17.80;99.90;;;;;;5013206;28;20247;-64
2022/04/11 12:09:36;;;;;;;0.70;0.70;;;17.90;99.90;;;;;;5007807;28;20718;-65
2022/04/11 12:12:04;;;;;;;0.70;0.70;;;18.00;99.90;;;;;;5010263;28;20225;-68
2022/04/11 12:14:59;;;;;;;0.70;0.70;;;18.30;99.90;;;;;;5014453;28;20206;-69
2022/04/11 12:17:31;;;;;;;0.73;0.73;;;18.30;99.90;;;;;;5013515;28;20225;-65
2022/04/11 12:20:07;;;;;;;0.70;0.70;;;18.20;99.90;;;;;;5014839;28;20300;-67
2022/04/11 12:24:59;;;;;;;0.90;0.90;;;18.10;99.90;;;;;;5072436;22;20243;-67
2022/04/11 12:27:26;;;;;;;0.90;0.90;;;18.40;99.90;;;;;;5060456;28;20208;-70
2022/04/11 12:29:56;;;;;;;0.80;0.80;;;18.70;99.90;;;;;;5061646;28;20204;-69
2022/04/11 12:32:25;;;;;;;0.77;0.77;;;18.70;99.90;;;;;;5059956;28;20222;-67
2022/04/11 12:34:54;;;;;;;0.70;0.67;;;18.60;99.90;;;;;;5054385;28;20238;-68
2022/04/11 12:37:21;;;;;;;0.90;0.90;;;18.70;99.90;;;;;;5054737;28;20300;-67
2022/04/11 12:39:52;;;;;;;0.80;0.80;;;18.60;99.90;;;;;;5051479;28;20200;-67
2022/04/11 12:42:20;;;;;;;0.77;0.77;;;18.60;99.90;;;;;;5053398;28;20259;-65
2022/04/11 12:44:47;;;;;;;0.70;0.70;;;18.70;99.90;;;;;;5049593;28;20224;-67
2022/04/11 12:47:16;;;;;;;0.83;0.83;;;18.60;99.90;;;;;;5052339;28;20204;-69
2022/04/11 12:49:45;;;;;;;0.70;0.70;;;18.50;99.90;;;;;;5054218;28;20585;-69
2022/04/11 12:52:12;;;;;;;0.80;0.80;;;18.50;99.90;;;;;;5047666;28;20207;-66
2022/04/11 12:54:41;;;;;;;0.80;0.80;;;18.40;99.90;;;;;;5049641;28;20216;-69
2022/04/11 12:57:11;;;;;;;0.80;0.80;;;18.50;99.90;;;;;;5053411;28;20540;-67
2022/04/11 12:59:40;;;;;;;0.80;0.80;;;18.70;99.90;;;;;;5051097;28;20200;-67
2022/04/11 13:02:09;;;;;;;0.70;0.70;;;18.80;99.90;;;;;;5052979;28;20315;-67
2022/04/11 13:04:39;;;;;;;0.80;0.80;;;18.80;99.90;;;;;;5052578;28;20252;-67